sensor_id;sensor_type;location;lat;lon;timestamp;P1;durP1;ratioP1;P2;durP2;ratioP2
54909;SDS011;63189;51.240;9.964;2023-04-30T00:02:11;10.65;;;6.60;;
54909;SDS011;63189;51.240;9.964;2023-04-30T00:04:36;10.98;;;6.15;;
54909;SDS011;63189;51.240;9.964;2023-04-30T00:07:01;9.25;;;6.90;;
54909;SDS011;63189;51.240;9.964;2023-04-30T00:09:27;10.88;;;7.07;;
54909;SDS011;63189;51.240;9.964;2023-04-30T00:11:52;11.18;;;6.20;;
54909;SDS011;63189;51.240;9.964;2023-04-30T00:14:18;11.88;;;6.90;;
54909;SDS011;63189;51.240;9.964;2023-04-30T00:16:43;7.78;;;5.93;;
54909;SDS011;63189;51.240;9.964;2023-04-30T00:19:08;8.32;;;6.10;;
54909;SDS011;63189;51.240;9.964;2023-04-30T00:21:34;9.38;;;6.88;;
54909;SDS011;63189;51.240;9.964;2023-04-30T00:24:00;10.32;;;7.05;;
54909;SDS011;63189;51.240;9.964;2023-04-30T00:26:25;14.00;;;8.55;;
54909;SDS011;63189;51.240;9.964;2023-04-30T00:28:52;17.30;;;10.13;;
54909;SDS011;63189;51.240;9.964;2023-04-30T00:31:17;22.83;;;10.73;;
54909;SDS011;63189;51.240;9.964;2023-04-30T00:33:42;18.60;;;9.77;;
54909;SDS011;63189;51.240;9.964;2023-04-30T00:36:08;16.92;;;10.10;;
54909;SDS011;63189;51.240;9.964;2023-04-30T00:38:34;16.52;;;9.05;;
54909;SDS011;63189;51.240;9.964;2023-04-30T00:41:00;17.73;;;8.65;;
54909;SDS011;63189;51.240;9.964;2023-04-30T00:43:25;12.93;;;7.10;;
54909;SDS011;63189;51.240;9.964;2023-04-30T00:45:51;11.82;;;6.50;;
54909;SDS011;63189;51.240;9.964;2023-04-30T00:48:16;10.13;;;7.03;;
54909;SDS011;63189;51.240;9.964;2023-04-30T00:50:43;13.38;;;6.72;;
54909;SDS011;63189;51.240;9.964;2023-04-30T00:53:09;7.88;;;5.80;;
54909;SDS011;63189;51.240;9.964;2023-04-30T00:55:36;8.13;;;6.07;;
54909;SDS011;63189;51.240;9.964;2023-04-30T00:58:01;9.82;;;6.28;;
54909;SDS011;63189;51.240;9.964;2023-04-30T01:00:27;13.18;;;7.30;;
54909;SDS011;63189;51.240;9.964;2023-04-30T01:02:52;10.05;;;6.63;;
54909;SDS011;63189;51.240;9.964;2023-04-30T01:05:19;11.88;;;6.00;;
54909;SDS011;63189;51.240;9.964;2023-04-30T01:07:46;9.27;;;5.72;;
54909;SDS011;63189;51.240;9.964;2023-04-30T01:10:13;8.88;;;5.68;;
54909;SDS011;63189;51.240;9.964;2023-04-30T01:18:08;11.35;;;6.18;;
54909;SDS011;63189;51.240;9.964;2023-04-30T01:21:03;10.15;;;6.03;;
54909;SDS011;63189;51.240;9.964;2023-04-30T01:28:28;8.85;;;6.00;;
54909;SDS011;63189;51.240;9.964;2023-04-30T01:30:54;9.38;;;6.22;;
54909;SDS011;63189;51.240;9.964;2023-04-30T01:33:19;10.20;;;6.55;;
54909;SDS011;63189;51.240;9.964;2023-04-30T01:41:03;11.23;;;6.40;;
54909;SDS011;63189;51.240;9.964;2023-04-30T01:43:38;10.50;;;5.78;;
54909;SDS011;63189;51.240;9.964;2023-04-30T01:46:23;11.20;;;6.18;;
54909;SDS011;63189;51.240;9.964;2023-04-30T01:52:01;10.00;;;6.55;;
54909;SDS011;63189;51.240;9.964;2023-04-30T01:54:52;10.48;;;5.63;;
54909;SDS011;63189;51.240;9.964;2023-04-30T01:57:31;10.98;;;6.25;;
54909;SDS011;63189;51.240;9.964;2023-04-30T01:59:59;9.30;;;5.78;;
54909;SDS011;63189;51.240;9.964;2023-04-30T02:02:25;10.15;;;6.85;;
54909;SDS011;63189;51.240;9.964;2023-04-30T02:04:50;14.15;;;6.88;;
54909;SDS011;63189;51.240;9.964;2023-04-30T02:07:16;11.43;;;6.90;;
54909;SDS011;63189;51.240;9.964;2023-04-30T02:10:02;12.32;;;6.30;;
54909;SDS011;63189;51.240;9.964;2023-04-30T02:12:27;10.88;;;6.93;;
54909;SDS011;63189;51.240;9.964;2023-04-30T02:14:54;15.32;;;7.57;;
54909;SDS011;63189;51.240;9.964;2023-04-30T02:17:19;12.30;;;6.85;;
54909;SDS011;63189;51.240;9.964;2023-04-30T02:19:45;9.07;;;6.38;;
54909;SDS011;63189;51.240;9.964;2023-04-30T02:22:11;11.93;;;6.78;;
54909;SDS011;63189;51.240;9.964;2023-04-30T02:24:37;11.32;;;7.45;;
54909;SDS011;63189;51.240;9.964;2023-04-30T02:27:02;10.43;;;6.88;;
54909;SDS011;63189;51.240;9.964;2023-04-30T02:29:27;10.77;;;7.15;;
54909;SDS011;63189;51.240;9.964;2023-04-30T02:31:53;10.45;;;6.57;;
54909;SDS011;63189;51.240;9.964;2023-04-30T02:34:18;11.95;;;6.15;;
54909;SDS011;63189;51.240;9.964;2023-04-30T02:36:43;12.80;;;6.70;;
54909;SDS011;63189;51.240;9.964;2023-04-30T02:39:09;14.23;;;8.23;;
54909;SDS011;63189;51.240;9.964;2023-04-30T02:41:34;13.63;;;7.38;;
54909;SDS011;63189;51.240;9.964;2023-04-30T02:44:00;9.48;;;6.93;;
54909;SDS011;63189;51.240;9.964;2023-04-30T02:46:25;12.70;;;7.55;;
54909;SDS011;63189;51.240;9.964;2023-04-30T02:48:51;13.27;;;7.30;;
54909;SDS011;63189;51.240;9.964;2023-04-30T02:51:16;12.10;;;7.25;;
54909;SDS011;63189;51.240;9.964;2023-04-30T02:53:41;14.07;;;7.40;;
54909;SDS011;63189;51.240;9.964;2023-04-30T02:56:07;10.27;;;7.40;;
54909;SDS011;63189;51.240;9.964;2023-04-30T02:58:32;10.75;;;7.55;;
54909;SDS011;63189;51.240;9.964;2023-04-30T03:00:57;9.85;;;6.60;;
54909;SDS011;63189;51.240;9.964;2023-04-30T03:03:23;13.13;;;7.05;;
54909;SDS011;63189;51.240;9.964;2023-04-30T03:05:48;15.30;;;8.52;;
54909;SDS011;63189;51.240;9.964;2023-04-30T03:08:14;13.27;;;7.28;;
54909;SDS011;63189;51.240;9.964;2023-04-30T03:10:39;11.38;;;6.95;;
54909;SDS011;63189;51.240;9.964;2023-04-30T03:13:04;14.20;;;7.68;;
54909;SDS011;63189;51.240;9.964;2023-04-30T03:15:31;11.20;;;6.72;;
54909;SDS011;63189;51.240;9.964;2023-04-30T03:17:56;12.57;;;7.72;;
54909;SDS011;63189;51.240;9.964;2023-04-30T03:20:22;11.63;;;7.43;;
54909;SDS011;63189;51.240;9.964;2023-04-30T03:22:47;15.25;;;8.65;;
54909;SDS011;63189;51.240;9.964;2023-04-30T03:25:12;14.38;;;8.60;;
54909;SDS011;63189;51.240;9.964;2023-04-30T03:27:38;10.60;;;7.55;;
54909;SDS011;63189;51.240;9.964;2023-04-30T03:30:03;13.98;;;7.93;;
54909;SDS011;63189;51.240;9.964;2023-04-30T03:32:29;17.45;;;7.70;;
54909;SDS011;63189;51.240;9.964;2023-04-30T03:34:55;10.35;;;6.47;;
54909;SDS011;63189;51.240;9.964;2023-04-30T03:37:22;12.55;;;7.30;;
54909;SDS011;63189;51.240;9.964;2023-04-30T03:39:47;14.52;;;8.13;;
54909;SDS011;63189;51.240;9.964;2023-04-30T03:42:13;12.50;;;6.90;;
54909;SDS011;63189;51.240;9.964;2023-04-30T03:44:38;13.95;;;8.23;;
54909;SDS011;63189;51.240;9.964;2023-04-30T03:47:03;11.75;;;7.07;;
54909;SDS011;63189;51.240;9.964;2023-04-30T03:49:29;9.35;;;6.65;;
54909;SDS011;63189;51.240;9.964;2023-04-30T03:51:54;11.27;;;7.22;;
54909;SDS011;63189;51.240;9.964;2023-04-30T03:54:19;17.05;;;7.55;;
54909;SDS011;63189;51.240;9.964;2023-04-30T03:56:45;13.10;;;7.20;;
54909;SDS011;63189;51.240;9.964;2023-04-30T03:59:10;11.63;;;6.78;;
54909;SDS011;63189;51.240;9.964;2023-04-30T04:01:36;12.35;;;6.90;;
54909;SDS011;63189;51.240;9.964;2023-04-30T04:04:01;17.60;;;7.55;;
54909;SDS011;63189;51.240;9.964;2023-04-30T04:06:27;15.85;;;8.00;;
54909;SDS011;63189;51.240;9.964;2023-04-30T04:08:53;12.32;;;7.07;;
54909;SDS011;63189;51.240;9.964;2023-04-30T04:11:18;14.23;;;7.68;;
54909;SDS011;63189;51.240;9.964;2023-04-30T04:13:44;8.98;;;6.95;;
54909;SDS011;63189;51.240;9.964;2023-04-30T04:16:10;17.40;;;8.27;;
54909;SDS011;63189;51.240;9.964;2023-04-30T04:18:35;14.80;;;7.93;;
54909;SDS011;63189;51.240;9.964;2023-04-30T04:21:00;14.80;;;7.43;;
54909;SDS011;63189;51.240;9.964;2023-04-30T04:23:29;16.17;;;9.27;;
54909;SDS011;63189;51.240;9.964;2023-04-30T04:25:54;14.95;;;9.18;;
54909;SDS011;63189;51.240;9.964;2023-04-30T04:28:21;14.93;;;7.88;;
54909;SDS011;63189;51.240;9.964;2023-04-30T04:30:46;15.98;;;8.07;;
54909;SDS011;63189;51.240;9.964;2023-04-30T04:33:13;15.52;;;8.73;;
54909;SDS011;63189;51.240;9.964;2023-04-30T04:35:38;13.45;;;7.97;;
54909;SDS011;63189;51.240;9.964;2023-04-30T04:38:04;13.68;;;8.30;;
54909;SDS011;63189;51.240;9.964;2023-04-30T04:40:29;13.57;;;7.93;;
54909;SDS011;63189;51.240;9.964;2023-04-30T04:42:54;12.77;;;8.00;;
54909;SDS011;63189;51.240;9.964;2023-04-30T04:45:20;12.15;;;7.47;;
54909;SDS011;63189;51.240;9.964;2023-04-30T04:47:45;15.25;;;8.07;;
54909;SDS011;63189;51.240;9.964;2023-04-30T04:50:11;13.63;;;7.80;;
54909;SDS011;63189;51.240;9.964;2023-04-30T04:52:37;10.98;;;7.00;;
54909;SDS011;63189;51.240;9.964;2023-04-30T04:55:03;11.75;;;7.70;;
54909;SDS011;63189;51.240;9.964;2023-04-30T04:57:28;12.93;;;7.85;;
54909;SDS011;63189;51.240;9.964;2023-04-30T04:59:54;13.15;;;8.10;;
54909;SDS011;63189;51.240;9.964;2023-04-30T05:02:19;13.63;;;7.28;;
54909;SDS011;63189;51.240;9.964;2023-04-30T05:04:47;16.00;;;7.63;;
54909;SDS011;63189;51.240;9.964;2023-04-30T05:07:14;14.00;;;8.23;;
54909;SDS011;63189;51.240;9.964;2023-04-30T05:09:40;11.82;;;7.22;;
54909;SDS011;63189;51.240;9.964;2023-04-30T05:12:06;12.30;;;7.95;;
54909;SDS011;63189;51.240;9.964;2023-04-30T05:14:31;11.88;;;7.57;;
54909;SDS011;63189;51.240;9.964;2023-04-30T05:16:56;17.70;;;7.60;;
54909;SDS011;63189;51.240;9.964;2023-04-30T05:19:22;11.43;;;7.47;;
54909;SDS011;63189;51.240;9.964;2023-04-30T05:21:47;11.10;;;8.10;;
54909;SDS011;63189;51.240;9.964;2023-04-30T05:24:12;12.27;;;7.70;;
54909;SDS011;63189;51.240;9.964;2023-04-30T05:26:37;14.43;;;8.07;;
54909;SDS011;63189;51.240;9.964;2023-04-30T05:29:03;17.17;;;7.85;;
54909;SDS011;63189;51.240;9.964;2023-04-30T05:31:28;15.82;;;8.77;;
54909;SDS011;63189;51.240;9.964;2023-04-30T05:33:53;11.18;;;7.22;;
54909;SDS011;63189;51.240;9.964;2023-04-30T05:36:19;11.48;;;6.60;;
54909;SDS011;63189;51.240;9.964;2023-04-30T05:38:44;9.70;;;6.20;;
54909;SDS011;63189;51.240;9.964;2023-04-30T05:41:10;10.98;;;6.82;;
54909;SDS011;63189;51.240;9.964;2023-04-30T05:43:36;10.75;;;6.45;;
54909;SDS011;63189;51.240;9.964;2023-04-30T05:46:02;12.15;;;6.05;;
54909;SDS011;63189;51.240;9.964;2023-04-30T05:48:28;12.13;;;5.93;;
54909;SDS011;63189;51.240;9.964;2023-04-30T05:50:53;12.32;;;5.93;;
54909;SDS011;63189;51.240;9.964;2023-04-30T05:53:18;10.88;;;5.30;;
54909;SDS011;63189;51.240;9.964;2023-04-30T05:55:44;9.55;;;5.38;;
54909;SDS011;63189;51.240;9.964;2023-04-30T05:58:09;14.93;;;5.82;;
54909;SDS011;63189;51.240;9.964;2023-04-30T06:00:35;9.27;;;4.28;;
54909;SDS011;63189;51.240;9.964;2023-04-30T06:03:01;10.77;;;4.72;;
54909;SDS011;63189;51.240;9.964;2023-04-30T06:05:26;9.48;;;4.43;;
54909;SDS011;63189;51.240;9.964;2023-04-30T06:07:52;7.00;;;4.55;;
54909;SDS011;63189;51.240;9.964;2023-04-30T06:10:17;8.25;;;4.47;;
54909;SDS011;63189;51.240;9.964;2023-04-30T06:12:42;9.02;;;3.70;;
54909;SDS011;63189;51.240;9.964;2023-04-30T06:15:08;9.20;;;4.03;;
54909;SDS011;63189;51.240;9.964;2023-04-30T06:17:33;6.32;;;3.33;;
54909;SDS011;63189;51.240;9.964;2023-04-30T06:19:58;6.70;;;3.65;;
54909;SDS011;63189;51.240;9.964;2023-04-30T06:22:26;5.25;;;3.30;;
54909;SDS011;63189;51.240;9.964;2023-04-30T06:24:54;6.85;;;3.42;;
54909;SDS011;63189;51.240;9.964;2023-04-30T06:27:21;7.18;;;3.65;;
54909;SDS011;63189;51.240;9.964;2023-04-30T06:29:47;7.55;;;2.83;;
54909;SDS011;63189;51.240;9.964;2023-04-30T06:32:12;6.28;;;3.13;;
54909;SDS011;63189;51.240;9.964;2023-04-30T06:34:38;7.35;;;3.28;;
54909;SDS011;63189;51.240;9.964;2023-04-30T06:37:03;7.63;;;3.38;;
54909;SDS011;63189;51.240;9.964;2023-04-30T06:39:31;3.75;;;2.38;;
54909;SDS011;63189;51.240;9.964;2023-04-30T06:41:56;6.70;;;3.00;;
54909;SDS011;63189;51.240;9.964;2023-04-30T06:44:21;5.15;;;2.67;;
54909;SDS011;63189;51.240;9.964;2023-04-30T06:46:48;7.13;;;2.45;;
54909;SDS011;63189;51.240;9.964;2023-04-30T06:49:13;6.18;;;3.08;;
54909;SDS011;63189;51.240;9.964;2023-04-30T06:51:40;6.53;;;2.30;;
54909;SDS011;63189;51.240;9.964;2023-04-30T06:54:05;6.88;;;2.70;;
54909;SDS011;63189;51.240;9.964;2023-04-30T06:56:31;6.10;;;2.40;;
54909;SDS011;63189;51.240;9.964;2023-04-30T06:58:56;5.68;;;2.55;;
54909;SDS011;63189;51.240;9.964;2023-04-30T07:01:21;6.95;;;2.80;;
54909;SDS011;63189;51.240;9.964;2023-04-30T07:03:47;5.25;;;2.72;;
54909;SDS011;63189;51.240;9.964;2023-04-30T07:06:12;5.50;;;2.40;;
54909;SDS011;63189;51.240;9.964;2023-04-30T07:08:38;7.00;;;2.70;;
54909;SDS011;63189;51.240;9.964;2023-04-30T07:11:05;5.25;;;2.60;;
54909;SDS011;63189;51.240;9.964;2023-04-30T07:13:30;7.72;;;2.53;;
54909;SDS011;63189;51.240;9.964;2023-04-30T07:15:55;5.10;;;2.50;;
54909;SDS011;63189;51.240;9.964;2023-04-30T07:18:21;5.85;;;2.40;;
54909;SDS011;63189;51.240;9.964;2023-04-30T07:20:46;4.85;;;2.60;;
54909;SDS011;63189;51.240;9.964;2023-04-30T07:23:11;6.75;;;2.72;;
54909;SDS011;63189;51.240;9.964;2023-04-30T07:25:37;5.45;;;2.40;;
54909;SDS011;63189;51.240;9.964;2023-04-30T07:28:02;4.95;;;2.45;;
54909;SDS011;63189;51.240;9.964;2023-04-30T07:30:27;4.63;;;2.17;;
54909;SDS011;63189;51.240;9.964;2023-04-30T07:32:53;3.92;;;1.83;;
54909;SDS011;63189;51.240;9.964;2023-04-30T07:35:18;5.93;;;2.20;;
54909;SDS011;63189;51.240;9.964;2023-04-30T07:37:43;6.40;;;2.42;;
54909;SDS011;63189;51.240;9.964;2023-04-30T07:40:09;6.75;;;2.30;;
54909;SDS011;63189;51.240;9.964;2023-04-30T07:42:38;8.23;;;1.90;;
54909;SDS011;63189;51.240;9.964;2023-04-30T07:45:06;4.80;;;1.95;;
54909;SDS011;63189;51.240;9.964;2023-04-30T07:47:31;3.80;;;1.77;;
54909;SDS011;63189;51.240;9.964;2023-04-30T07:49:57;4.32;;;1.70;;
54909;SDS011;63189;51.240;9.964;2023-04-30T07:52:22;7.85;;;2.50;;
54909;SDS011;63189;51.240;9.964;2023-04-30T07:54:47;3.13;;;1.80;;
54909;SDS011;63189;51.240;9.964;2023-04-30T07:57:15;4.47;;;1.73;;
54909;SDS011;63189;51.240;9.964;2023-04-30T07:59:46;4.90;;;1.90;;
54909;SDS011;63189;51.240;9.964;2023-04-30T08:02:11;7.35;;;2.20;;
54909;SDS011;63189;51.240;9.964;2023-04-30T08:04:37;5.15;;;1.98;;
54909;SDS011;63189;51.240;9.964;2023-04-30T08:07:02;5.82;;;1.73;;
54909;SDS011;63189;51.240;9.964;2023-04-30T08:09:28;4.25;;;1.65;;
54909;SDS011;63189;51.240;9.964;2023-04-30T08:11:54;3.15;;;1.67;;
54909;SDS011;63189;51.240;9.964;2023-04-30T08:14:19;6.00;;;1.60;;
54909;SDS011;63189;51.240;9.964;2023-04-30T08:16:45;4.50;;;1.70;;
54909;SDS011;63189;51.240;9.964;2023-04-30T08:19:10;7.45;;;1.95;;
54909;SDS011;63189;51.240;9.964;2023-04-30T08:21:36;5.70;;;1.80;;
54909;SDS011;63189;51.240;9.964;2023-04-30T08:24:02;3.72;;;1.63;;
54909;SDS011;63189;51.240;9.964;2023-04-30T08:26:27;2.47;;;1.13;;
54909;SDS011;63189;51.240;9.964;2023-04-30T08:28:53;4.45;;;1.23;;
54909;SDS011;63189;51.240;9.964;2023-04-30T08:31:18;4.43;;;1.50;;
54909;SDS011;63189;51.240;9.964;2023-04-30T08:33:46;4.63;;;1.15;;
54909;SDS011;63189;51.240;9.964;2023-04-30T08:36:12;5.57;;;1.52;;
54909;SDS011;63189;51.240;9.964;2023-04-30T08:38:37;3.88;;;1.20;;
54909;SDS011;63189;51.240;9.964;2023-04-30T08:43:45;3.75;;;1.50;;
54909;SDS011;63189;51.240;9.964;2023-04-30T08:46:12;4.20;;;1.45;;
54909;SDS011;63189;51.240;9.964;2023-04-30T08:48:39;3.88;;;1.58;;
54909;SDS011;63189;51.240;9.964;2023-04-30T08:51:05;4.22;;;1.30;;
54909;SDS011;63189;51.240;9.964;2023-04-30T08:53:33;7.57;;;1.83;;
54909;SDS011;63189;51.240;9.964;2023-04-30T08:55:59;4.90;;;1.80;;
54909;SDS011;63189;51.240;9.964;2023-04-30T08:58:25;3.20;;;1.30;;
54909;SDS011;63189;51.240;9.964;2023-04-30T09:00:50;6.05;;;1.48;;
54909;SDS011;63189;51.240;9.964;2023-04-30T09:03:21;4.50;;;1.10;;
54909;SDS011;63189;51.240;9.964;2023-04-30T09:05:47;3.25;;;1.30;;
54909;SDS011;63189;51.240;9.964;2023-04-30T09:08:16;4.90;;;1.58;;
54909;SDS011;63189;51.240;9.964;2023-04-30T09:10:42;4.65;;;1.85;;
54909;SDS011;63189;51.240;9.964;2023-04-30T09:13:08;8.98;;;1.88;;
54909;SDS011;63189;51.240;9.964;2023-04-30T09:15:35;3.92;;;1.50;;
54909;SDS011;63189;51.240;9.964;2023-04-30T09:18:14;2.78;;;1.35;;
54909;SDS011;63189;51.240;9.964;2023-04-30T09:21:00;5.78;;;1.20;;
54909;SDS011;63189;51.240;9.964;2023-04-30T09:23:28;3.60;;;1.25;;
54909;SDS011;63189;51.240;9.964;2023-04-30T09:25:54;2.38;;;1.00;;
54909;SDS011;63189;51.240;9.964;2023-04-30T09:28:25;3.42;;;1.65;;
54909;SDS011;63189;51.240;9.964;2023-04-30T09:30:53;3.33;;;1.40;;
54909;SDS011;63189;51.240;9.964;2023-04-30T09:33:20;4.35;;;1.25;;
54909;SDS011;63189;51.240;9.964;2023-04-30T09:35:46;3.72;;;1.00;;
54909;SDS011;63189;51.240;9.964;2023-04-30T09:38:31;3.75;;;1.00;;
54909;SDS011;63189;51.240;9.964;2023-04-30T09:41:00;4.05;;;1.23;;
54909;SDS011;63189;51.240;9.964;2023-04-30T09:43:29;2.58;;;1.08;;
54909;SDS011;63189;51.240;9.964;2023-04-30T09:45:56;2.70;;;1.30;;
54909;SDS011;63189;51.240;9.964;2023-04-30T09:48:23;2.67;;;0.93;;
54909;SDS011;63189;51.240;9.964;2023-04-30T09:50:50;2.97;;;1.10;;
54909;SDS011;63189;51.240;9.964;2023-04-30T09:53:16;5.45;;;1.20;;
54909;SDS011;63189;51.240;9.964;2023-04-30T09:55:46;3.17;;;0.98;;
54909;SDS011;63189;51.240;9.964;2023-04-30T09:58:13;2.58;;;1.10;;
54909;SDS011;63189;51.240;9.964;2023-04-30T10:00:41;4.88;;;0.90;;
54909;SDS011;63189;51.240;9.964;2023-04-30T10:03:08;4.43;;;1.20;;
54909;SDS011;63189;51.240;9.964;2023-04-30T10:05:56;2.80;;;1.10;;
54909;SDS011;63189;51.240;9.964;2023-04-30T10:10:56;3.30;;;0.90;;
54909;SDS011;63189;51.240;9.964;2023-04-30T10:13:25;4.30;;;1.25;;
54909;SDS011;63189;51.240;9.964;2023-04-30T10:15:58;4.32;;;0.93;;
54909;SDS011;63189;51.240;9.964;2023-04-30T10:18:27;1.67;;;0.80;;
54909;SDS011;63189;51.240;9.964;2023-04-30T10:20:55;3.30;;;1.05;;
54909;SDS011;63189;51.240;9.964;2023-04-30T10:23:22;3.50;;;1.00;;
54909;SDS011;63189;51.240;9.964;2023-04-30T10:25:49;3.95;;;0.95;;
54909;SDS011;63189;51.240;9.964;2023-04-30T10:28:15;1.58;;;0.70;;
54909;SDS011;63189;51.240;9.964;2023-04-30T10:30:41;4.03;;;1.27;;
54909;SDS011;63189;51.240;9.964;2023-04-30T10:33:24;3.90;;;1.10;;
54909;SDS011;63189;51.240;9.964;2023-04-30T10:35:58;4.45;;;1.50;;
54909;SDS011;63189;51.240;9.964;2023-04-30T10:38:26;5.78;;;1.13;;
54909;SDS011;63189;51.240;9.964;2023-04-30T10:40:57;3.00;;;1.35;;
54909;SDS011;63189;51.240;9.964;2023-04-30T10:43:25;4.18;;;1.10;;
54909;SDS011;63189;51.240;9.964;2023-04-30T10:45:54;4.55;;;1.00;;
54909;SDS011;63189;51.240;9.964;2023-04-30T10:48:22;2.17;;;1.00;;
54909;SDS011;63189;51.240;9.964;2023-04-30T10:50:58;3.22;;;1.05;;
54909;SDS011;63189;51.240;9.964;2023-04-30T10:53:35;1.60;;;0.68;;
54909;SDS011;63189;51.240;9.964;2023-04-30T10:56:06;2.72;;;0.93;;
54909;SDS011;63189;51.240;9.964;2023-04-30T10:58:46;3.20;;;1.00;;
54909;SDS011;63189;51.240;9.964;2023-04-30T11:01:15;3.85;;;0.90;;
54909;SDS011;63189;51.240;9.964;2023-04-30T11:03:42;2.80;;;0.88;;
54909;SDS011;63189;51.240;9.964;2023-04-30T11:06:28;3.30;;;0.95;;
54909;SDS011;63189;51.240;9.964;2023-04-30T11:09:14;1.27;;;0.70;;
54909;SDS011;63189;51.240;9.964;2023-04-30T11:11:39;2.15;;;0.93;;
54909;SDS011;63189;51.240;9.964;2023-04-30T11:14:05;2.67;;;0.70;;
54909;SDS011;63189;51.240;9.964;2023-04-30T11:16:32;2.13;;;0.65;;
54909;SDS011;63189;51.240;9.964;2023-04-30T11:19:31;2.15;;;0.80;;
54909;SDS011;63189;51.240;9.964;2023-04-30T11:27:21;2.15;;;1.27;;
54909;SDS011;63189;51.240;9.964;2023-04-30T11:29:51;4.18;;;0.90;;
54909;SDS011;63189;51.240;9.964;2023-04-30T11:32:17;2.80;;;0.75;;
54909;SDS011;63189;51.240;9.964;2023-04-30T11:34:43;1.27;;;0.70;;
54909;SDS011;63189;51.240;9.964;2023-04-30T11:37:10;2.05;;;0.80;;
54909;SDS011;63189;51.240;9.964;2023-04-30T11:39:40;4.32;;;1.17;;
54909;SDS011;63189;51.240;9.964;2023-04-30T11:42:07;4.05;;;1.83;;
54909;SDS011;63189;51.240;9.964;2023-04-30T11:44:33;4.32;;;1.52;;
54909;SDS011;63189;51.240;9.964;2023-04-30T11:46:59;2.05;;;0.90;;
54909;SDS011;63189;51.240;9.964;2023-04-30T11:49:25;5.50;;;2.75;;
54909;SDS011;63189;51.240;9.964;2023-04-30T11:51:54;6.07;;;2.00;;
54909;SDS011;63189;51.240;9.964;2023-04-30T11:54:19;2.83;;;1.27;;
54909;SDS011;63189;51.240;9.964;2023-04-30T11:56:47;2.38;;;0.88;;
54909;SDS011;63189;51.240;9.964;2023-04-30T11:59:13;2.22;;;1.02;;
54909;SDS011;63189;51.240;9.964;2023-04-30T12:01:39;3.90;;;1.00;;
54909;SDS011;63189;51.240;9.964;2023-04-30T12:04:05;3.47;;;1.48;;
54909;SDS011;63189;51.240;9.964;2023-04-30T12:06:34;3.53;;;1.25;;
54909;SDS011;63189;51.240;9.964;2023-04-30T12:09:00;5.70;;;1.95;;
54909;SDS011;63189;51.240;9.964;2023-04-30T12:11:33;3.50;;;1.13;;
54909;SDS011;63189;51.240;9.964;2023-04-30T12:14:06;5.63;;;2.05;;
54909;SDS011;63189;51.240;9.964;2023-04-30T12:19:13;1.52;;;0.90;;
54909;SDS011;63189;51.240;9.964;2023-04-30T12:21:40;4.53;;;2.70;;
54909;SDS011;63189;51.240;9.964;2023-04-30T12:24:09;4.20;;;1.77;;
54909;SDS011;63189;51.240;9.964;2023-04-30T12:26:39;4.38;;;1.83;;
54909;SDS011;63189;51.240;9.964;2023-04-30T12:29:16;3.50;;;1.38;;
54909;SDS011;63189;51.240;9.964;2023-04-30T12:31:43;2.53;;;1.23;;
54909;SDS011;63189;51.240;9.964;2023-04-30T12:34:11;2.60;;;1.23;;
54909;SDS011;63189;51.240;9.964;2023-04-30T12:36:38;3.33;;;0.90;;
54909;SDS011;63189;51.240;9.964;2023-04-30T12:39:07;2.33;;;0.80;;
54909;SDS011;63189;51.240;9.964;2023-04-30T12:41:40;2.95;;;1.10;;
54909;SDS011;63189;51.240;9.964;2023-04-30T12:46:39;3.63;;;1.40;;
54909;SDS011;63189;51.240;9.964;2023-04-30T12:49:04;2.08;;;0.80;;
54909;SDS011;63189;51.240;9.964;2023-04-30T12:51:31;2.75;;;1.00;;
54909;SDS011;63189;51.240;9.964;2023-04-30T12:53:59;2.75;;;1.50;;
54909;SDS011;63189;51.240;9.964;2023-04-30T12:56:25;3.70;;;1.40;;
54909;SDS011;63189;51.240;9.964;2023-04-30T12:58:52;3.10;;;1.30;;
54909;SDS011;63189;51.240;9.964;2023-04-30T13:01:21;3.83;;;1.52;;
54909;SDS011;63189;51.240;9.964;2023-04-30T13:03:49;4.40;;;1.45;;
54909;SDS011;63189;51.240;9.964;2023-04-30T13:06:15;2.20;;;1.20;;
54909;SDS011;63189;51.240;9.964;2023-04-30T13:08:41;4.03;;;1.20;;
54909;SDS011;63189;51.240;9.964;2023-04-30T13:11:07;1.90;;;0.75;;
54909;SDS011;63189;51.240;9.964;2023-04-30T13:13:32;1.75;;;0.77;;
54909;SDS011;63189;51.240;9.964;2023-04-30T13:15:59;2.35;;;1.00;;
54909;SDS011;63189;51.240;9.964;2023-04-30T13:18:24;8.68;;;4.13;;
54909;SDS011;63189;51.240;9.964;2023-04-30T13:20:49;2.55;;;1.00;;
54909;SDS011;63189;51.240;9.964;2023-04-30T13:23:17;1.98;;;0.90;;
54909;SDS011;63189;51.240;9.964;2023-04-30T13:25:43;2.47;;;1.13;;
54909;SDS011;63189;51.240;9.964;2023-04-30T13:28:08;1.80;;;1.05;;
54909;SDS011;63189;51.240;9.964;2023-04-30T13:30:34;2.38;;;1.30;;
54909;SDS011;63189;51.240;9.964;2023-04-30T13:33:00;3.00;;;1.35;;
54909;SDS011;63189;51.240;9.964;2023-04-30T13:35:25;2.38;;;1.08;;
54909;SDS011;63189;51.240;9.964;2023-04-30T13:37:51;1.58;;;0.73;;
54909;SDS011;63189;51.240;9.964;2023-04-30T13:40:18;30.05;;;25.80;;
54909;SDS011;63189;51.240;9.964;2023-04-30T13:42:45;19.65;;;14.20;;
54909;SDS011;63189;51.240;9.964;2023-04-30T13:45:12;4.13;;;2.05;;
54909;SDS011;63189;51.240;9.964;2023-04-30T13:47:38;2.92;;;0.90;;
54909;SDS011;63189;51.240;9.964;2023-04-30T13:50:04;2.78;;;1.40;;
54909;SDS011;63189;51.240;9.964;2023-04-30T13:52:30;2.50;;;1.00;;
54909;SDS011;63189;51.240;9.964;2023-04-30T13:54:56;4.20;;;1.23;;
54909;SDS011;63189;51.240;9.964;2023-04-30T13:57:22;4.70;;;1.10;;
54909;SDS011;63189;51.240;9.964;2023-04-30T13:59:48;4.50;;;1.30;;
54909;SDS011;63189;51.240;9.964;2023-04-30T14:02:13;3.92;;;1.00;;
54909;SDS011;63189;51.240;9.964;2023-04-30T14:04:39;5.70;;;2.47;;
54909;SDS011;63189;51.240;9.964;2023-04-30T14:07:04;3.42;;;1.25;;
54909;SDS011;63189;51.240;9.964;2023-04-30T14:09:30;3.25;;;1.15;;
54909;SDS011;63189;51.240;9.964;2023-04-30T14:11:57;1.15;;;0.60;;
54909;SDS011;63189;51.240;9.964;2023-04-30T14:14:24;1.40;;;0.50;;
54909;SDS011;63189;51.240;9.964;2023-04-30T14:16:50;2.47;;;0.90;;
54909;SDS011;63189;51.240;9.964;2023-04-30T14:19:16;4.15;;;0.85;;
54909;SDS011;63189;51.240;9.964;2023-04-30T14:21:41;1.95;;;0.63;;
54909;SDS011;63189;51.240;9.964;2023-04-30T14:24:07;2.38;;;0.80;;
54909;SDS011;63189;51.240;9.964;2023-04-30T14:26:41;4.82;;;0.85;;
54909;SDS011;63189;51.240;9.964;2023-04-30T14:29:08;2.28;;;1.10;;
54909;SDS011;63189;51.240;9.964;2023-04-30T14:31:33;1.38;;;0.50;;
54909;SDS011;63189;51.240;9.964;2023-04-30T14:33:59;1.40;;;0.60;;
54909;SDS011;63189;51.240;9.964;2023-04-30T14:36:26;1.17;;;0.52;;
54909;SDS011;63189;51.240;9.964;2023-04-30T14:38:52;3.33;;;0.70;;
54909;SDS011;63189;51.240;9.964;2023-04-30T14:41:18;1.95;;;0.80;;
54909;SDS011;63189;51.240;9.964;2023-04-30T14:43:43;2.25;;;0.80;;
54909;SDS011;63189;51.240;9.964;2023-04-30T14:46:09;2.60;;;0.77;;
54909;SDS011;63189;51.240;9.964;2023-04-30T14:48:35;0.95;;;0.55;;
54909;SDS011;63189;51.240;9.964;2023-04-30T14:51:01;3.28;;;0.82;;
54909;SDS011;63189;51.240;9.964;2023-04-30T14:53:26;2.25;;;0.70;;
54909;SDS011;63189;51.240;9.964;2023-04-30T14:55:52;1.50;;;0.60;;
54909;SDS011;63189;51.240;9.964;2023-04-30T14:58:17;4.25;;;0.75;;
54909;SDS011;63189;51.240;9.964;2023-04-30T15:00:44;0.90;;;0.50;;
54909;SDS011;63189;51.240;9.964;2023-04-30T15:03:10;1.42;;;0.70;;
54909;SDS011;63189;51.240;9.964;2023-04-30T15:05:36;1.20;;;0.73;;
54909;SDS011;63189;51.240;9.964;2023-04-30T15:08:01;2.28;;;0.90;;
54909;SDS011;63189;51.240;9.964;2023-04-30T15:10:27;2.00;;;0.82;;
54909;SDS011;63189;51.240;9.964;2023-04-30T15:12:52;3.08;;;0.88;;
54909;SDS011;63189;51.240;9.964;2023-04-30T15:15:18;3.47;;;1.30;;
54909;SDS011;63189;51.240;9.964;2023-04-30T15:17:45;1.40;;;0.90;;